Time;durP1;ratioP1;P1;durP2;ratioP2;P2;SDS_P1;SDS_P2;PMS_P1;PMS_P2;Temp;Humidity;BMP_temperature;BMP_pressure;BME280_temperature;BME280_humidity;BME280_pressure;Samples;Min_cycle;Max_cycle;Signal;HPM_P1;HPM_P2
2021/05/15 00:03:29;;;;;;;5.2;3.6;;;;;;;11.53;100;97927.6;;;;
2021/05/15 00:13:28;;;;;;;8;3.4;;;;;;;11.43;100;97928;;;;
2021/05/15 00:23:27;;;;;;;6.9;3.7;;;;;;;11.26;100;97928.13;;;;
2021/05/15 00:33:25;;;;;;;6;3.4;;;;;;;11.16;100;97925.81;;;;
2021/05/15 00:43:26;;;;;;;9.3;4.2;;;;;;;11.18;100;97934.35;;;;
2021/05/15 00:53:23;;;;;;;5.2;3.3;;;;;;;11.16;100;97934.7;;;;
2021/05/15 01:03:22;;;;;;;5.7;3.7;;;;;;;11.06;100;97926.98;;;;
2021/05/15 01:13:22;;;;;;;5;4.2;;;;;;;10.95;100;97928.47;;;;
2021/05/15 01:23:19;;;;;;;6.4;3.1;;;;;;;10.86;100;97931.22;;;;
2021/05/15 01:33:18;;;;;;;7.7;3.1;;;;;;;10.74;100;97935.7;;;;
2021/05/15 01:43:17;;;;;;;5.3;3.2;;;;;;;10.79;100;97930.94;;;;
2021/05/15 01:53:17;;;;;;;6;3.2;;;;;;;10.8;100;97927.11;;;;
2021/05/15 02:03:15;;;;;;;7.2;3.3;;;;;;;10.83;100;97925.69;;;;
2021/05/15 02:13:14;;;;;;;6.2;2.8;;;;;;;10.91;100;97927.53;;;;
2021/05/15 02:23:13;;;;;;;4.6;2.5;;;;;;;10.87;100;97922;;;;
2021/05/15 02:33:11;;;;;;;5.3;3.2;;;;;;;10.82;100;97924.9;;;;
2021/05/15 02:43:10;;;;;;;4.8;3.2;;;;;;;10.53;100;97919.46;;;;
2021/05/15 02:53:09;;;;;;;4.9;3.2;;;;;;;10.16;100;97926.41;;;;
2021/05/15 03:03:09;;;;;;;5.2;2.3;;;;;;;9.89;100;97940.97;;;;
2021/05/15 03:13:06;;;;;;;5.7;3.3;;;;;;;9.78;100;97937.04;;;;
2021/05/15 03:23:05;;;;;;;4.7;2.7;;;;;;;9.81;100;97936.4;;;;
2021/05/15 03:33:03;;;;;;;6;3.8;;;;;;;9.96;100;97935.89;;;;
2021/05/15 03:43:03;;;;;;;6.7;2.2;;;;;;;10.2;100;97940.81;;;;
2021/05/15 03:53:01;;;;;;;4.1;2.1;;;;;;;10.54;100;97948.8;;;;
2021/05/15 04:02:59;;;;;;;5.1;3.1;;;;;;;10.86;100;97946.61;;;;
2021/05/15 04:13:05;;;;;;;6.2;2.8;;;;;;;11.18;100;97953.23;;;;
2021/05/15 04:22:57;;;;;;;2.8;1.6;;;;;;;11.33;100;97960.77;;;;
2021/05/15 04:32:56;;;;;;;4.2;1.7;;;;;;;11.43;100;97965.77;;;;
2021/05/15 04:42:54;;;;;;;4.9;1.9;;;;;;;11.39;100;97981.83;;;;
2021/05/15 04:52:53;;;;;;;5.3;2.3;;;;;;;11.57;100;97988.7;;;;
2021/05/15 05:02:52;;;;;;;5.8;1.7;;;;;;;11.73;100;97990.86;;;;
2021/05/15 05:12:51;;;;;;;4.2;2.3;;;;;;;11.93;100;98004.34;;;;
2021/05/15 05:22:50;;;;;;;6.7;2.6;;;;;;;12.47;100;98005.11;;;;
2021/05/15 05:32:49;;;;;;;3.4;1.7;;;;;;;12.69;100;98011.25;;;;
2021/05/15 05:42:48;;;;;;;3.4;2.2;;;;;;;13.06;100;98015.59;;;;
2021/05/15 05:52:47;;;;;;;4.9;1.9;;;;;;;13.24;100;98021.6;;;;
2021/05/15 06:02:46;;;;;;;3.8;1.8;;;;;;;13.73;100;98023.15;;;;
2021/05/15 06:12:46;;;;;;;5.9;2.4;;;;;;;14.03;100;98026.34;;;;
2021/05/15 06:22:45;;;;;;;7.1;4.2;;;;;;;14.27;100;98033.59;;;;
2021/05/15 06:32:44;;;;;;;3.9;1.9;;;;;;;14.34;100;98036.53;;;;
2021/05/15 06:42:43;;;;;;;6.3;2.5;;;;;;;14.82;100;98020.02;;;;
2021/05/15 06:52:43;;;;;;;4.7;2.7;;;;;;;15.11;98.33398;98035.89;;;;
2021/05/15 07:02:42;;;;;;;7.6;2.4;;;;;;;15.44;97.59863;98029.31;;;;
2021/05/15 07:12:41;;;;;;;7.8;4.2;;;;;;;15.63;97.93457;98023.16;;;;
2021/05/15 07:22:42;;;;;;;6.6;2.4;;;;;;;15.77;94.72168;98018.84;;;;
2021/05/15 07:32:40;;;;;;;4.1;1.9;;;;;;;16.17;95.56738;98015.02;;;;
2021/05/15 07:42:40;;;;;;;4;2.4;;;;;;;16.29;91.9541;98021.09;;;;
2021/05/15 07:52:39;;;;;;;4.3;3;;;;;;;16.82;87.50488;98033.02;;;;
2021/05/15 08:02:39;;;;;;;6;2.8;;;;;;;16.97;87.03027;98031.34;;;;
2021/05/15 08:12:38;;;;;;;5;2.7;;;;;;;17.15;88.33301;98029.69;;;;
2021/05/15 08:22:38;;;;;;;4.7;2.1;;;;;;;17.48;88.9375;98032.58;;;;
2021/05/15 08:32:38;;;;;;;5.7;2.8;;;;;;;17.61;86.93945;98038.63;;;;
2021/05/15 08:42:37;;;;;;;4.6;2.1;;;;;;;17.76;87.99805;98045.88;;;;
2021/05/15 08:52:37;;;;;;;5.2;2.9;;;;;;;18.1;87.38867;98046.73;;;;
2021/05/15 09:02:37;;;;;;;5.7;3.5;;;;;;;17.92;85.30566;98051.15;;;;
2021/05/15 09:12:36;;;;;;;9.5;3.3;;;;;;;18.04;85.84473;98049;;;;
2021/05/15 09:22:36;;;;;;;3.8;1.9;;;;;;;17.99;85.67383;98032.16;;;;
2021/05/15 09:32:36;;;;;;;4.9;2.3;;;;;;;18.33;83.21777;98043.89;;;;
2021/05/15 09:42:36;;;;;;;5;3;;;;;;;18.27;80.08691;98037.2;;;;
2021/05/15 09:52:35;;;;;;;4.5;2.3;;;;;;;18.53;79.43555;98043.38;;;;
2021/05/15 10:02:35;;;;;;;5;2.4;;;;;;;18.99;79.59668;98032.16;;;;
2021/05/15 10:12:36;;;;;;;5;2.8;;;;;;;19.65;76.24902;98031.17;;;;
2021/05/15 10:22:35;;;;;;;5;2.8;;;;;;;19.38;77.6416;98025.09;;;;
2021/05/15 10:32:36;;;;;;;4.9;2.9;;;;;;;19.57;76.22461;98013.95;;;;
2021/05/15 10:42:35;;;;;;;4.4;2.3;;;;;;;19.32;77.68848;98007.48;;;;
2021/05/15 10:52:35;;;;;;;2.9;1.7;;;;;;;19.31;75.0625;97994.98;;;;
2021/05/15 11:02:36;;;;;;;4.5;2.5;;;;;;;19.43;75.16406;97991.99;;;;
2021/05/15 11:12:35;;;;;;;4.7;2.7;;;;;;;20.15;75.46777;97984.95;;;;
2021/05/15 11:22:39;;;;;;;2.8;1.9;;;;;;;21.18;75.2959;97977.77;;;;
2021/05/15 11:32:35;;;;;;;3;1.6;;;;;;;20.86;68.19629;97972.27;;;;
2021/05/15 11:42:36;;;;;;;3.3;1.9;;;;;;;20.4;69.80371;97972.96;;;;
2021/05/15 11:52:35;;;;;;;5.5;2.1;;;;;;;20.61;67.84473;97972.23;;;;
2021/05/15 12:02:35;;;;;;;4.2;2.3;;;;;;;21.17;72.44629;97959.78;;;;
2021/05/15 12:12:36;;;;;;;5.1;1.8;;;;;;;20.59;66.97559;97956.18;;;;
2021/05/15 12:22:36;;;;;;;4;1.6;;;;;;;20.68;66.1084;97939.38;;;;
2021/05/15 12:32:37;;;;;;;4.5;2.3;;;;;;;20.8;72.49219;97930.77;;;;
2021/05/15 12:42:36;;;;;;;3.1;1.8;;;;;;;21.55;68.77734;97917.83;;;;
2021/05/15 12:52:37;;;;;;;4.3;3.1;;;;;;;22.56;67.12891;97909.54;;;;
2021/05/15 13:02:37;;;;;;;5;3;;;;;;;22.51;66.22754;97896.22;;;;
2021/05/15 13:12:38;;;;;;;10.1;6.7;;;;;;;22.22;62.70801;97879.14;;;;
2021/05/15 13:22:38;;;;;;;4.4;1.8;;;;;;;21.71;70.07813;97871.53;;;;
2021/05/15 13:32:38;;;;;;;4.1;2.5;;;;;;;22;64.23438;97855.75;;;;
2021/05/15 13:42:38;;;;;;;7;3.7;;;;;;;22.72;60.41211;97854.89;;;;
2021/05/15 13:52:39;;;;;;;8.4;6.2;;;;;;;22.97;57.98438;97838.97;;;;
2021/05/15 14:02:40;;;;;;;4.2;2;;;;;;;23.19;59.77344;97835.98;;;;
2021/05/15 14:12:40;;;;;;;3.5;1.4;;;;;;;21.04;63.20313;97819.61;;;;
2021/05/15 14:22:40;;;;;;;6.7;2.6;;;;;;;21.58;62.1875;97815.56;;;;
2021/05/15 14:32:40;;;;;;;7.5;2.5;;;;;;;21.48;64.51855;97802.69;;;;
2021/05/15 14:42:41;;;;;;;3.1;2;;;;;;;21.69;63.42285;97799.84;;;;
2021/05/15 14:52:41;;;;;;;4.1;2.6;;;;;;;20.45;64.73145;97793.86;;;;
2021/05/15 15:02:41;;;;;;;4.7;1.9;;;;;;;20.4;66.88867;97777.84;;;;
2021/05/15 15:12:42;;;;;;;4.3;3.1;;;;;;;19.77;70.13184;97773.05;;;;
2021/05/15 15:22:42;;;;;;;22.3;10.2;;;;;;;19.65;68.13867;97763.25;;;;
2021/05/15 15:32:42;;;;;;;33.7;10.3;;;;;;;19.24;68.24902;97767.38;;;;
2021/05/15 15:42:42;;;;;;;126.6;62.2;;;;;;;18.81;73.02148;97769.13;;;;
2021/05/15 15:52:42;;;;;;;8.8;2.9;;;;;;;16.39;91.51953;97781.18;;;;
2021/05/15 16:02:42;;;;;;;7.4;2.1;;;;;;;14.84;100;97794.5;;;;
2021/05/15 16:12:41;;;;;;;8.3;4.5;;;;;;;14.51;100;97786.77;;;;
2021/05/15 16:22:40;;;;;;;9.8;3.8;;;;;;;14.02;100;97770.09;;;;
2021/05/15 16:32:40;;;;;;;2.4;1.2;;;;;;;13.84;100;97785.9;;;;
2021/05/15 16:42:39;;;;;;;4.7;1;;;;;;;13.68;100;97773.45;;;;
2021/05/15 16:52:38;;;;;;;3.7;2.3;;;;;;;13.59;100;97755.46;;;;
2021/05/15 17:02:38;;;;;;;3.4;1.5;;;;;;;13.55;100;97765.41;;;;
2021/05/15 17:12:37;;;;;;;3.2;1.2;;;;;;;13.57;100;97775.91;;;;
2021/05/15 17:22:36;;;;;;;4.2;2.1;;;;;;;13.35;100;97795.39;;;;
2021/05/15 17:32:35;;;;;;;6.3;2.8;;;;;;;13.18;100;97811.91;;;;
2021/05/15 17:42:35;;;;;;;5.4;3.1;;;;;;;12.95;100;97790.73;;;;
2021/05/15 17:52:34;;;;;;;4.6;2.1;;;;;;;13.03;100;97799.85;;;;
2021/05/15 18:02:33;;;;;;;3.5;1.9;;;;;;;13.02;100;97800.97;;;;
2021/05/15 18:12:32;;;;;;;8.8;4.1;;;;;;;12.97;100;97790.41;;;;
2021/05/15 18:22:31;;;;;;;8.3;5;;;;;;;12.92;100;97796.83;;;;
2021/05/15 18:32:30;;;;;;;10.2;3.9;;;;;;;12.7;100;97801.95;;;;
2021/05/15 18:42:32;;;;;;;6.9;5;;;;;;;12.47;100;97815.13;;;;
2021/05/15 18:52:32;;;;;;;9.5;4.5;;;;;;;12.43;100;97811.52;;;;
2021/05/15 19:02:28;;;;;;;6.6;4.3;;;;;;;12.59;100;97802.42;;;;
2021/05/15 19:12:27;;;;;;;8.2;4.7;;;;;;;12.61;100;97802.86;;;;
2021/05/15 19:22:26;;;;;;;16.1;6.3;;;;;;;12.5;100;97790.13;;;;
2021/05/15 19:32:25;;;;;;;10.2;5.9;;;;;;;12.44;100;97786.09;;;;
2021/05/15 19:42:24;;;;;;;10.8;7.1;;;;;;;11.97;100;97775.73;;;;
2021/05/15 19:52:24;;;;;;;16.7;13.5;;;;;;;11.92;100;97769.75;;;;
2021/05/15 20:02:25;;;;;;;9.9;7.4;;;;;;;11.78;100;97767.36;;;;
2021/05/15 20:12:24;;;;;;;8.8;6.2;;;;;;;11.53;100;97771.88;;;;
2021/05/15 20:22:20;;;;;;;9.5;7.9;;;;;;;11.42;100;97765.32;;;;
2021/05/15 20:32:19;;;;;;;10.3;6.6;;;;;;;11.51;100;97755.25;;;;
2021/05/15 20:42:18;;;;;;;6.7;4;;;;;;;11.42;100;97746.44;;;;
2021/05/15 20:52:17;;;;;;;5.8;3.6;;;;;;;11.55;100;97747.27;;;;
2021/05/15 21:02:16;;;;;;;7.9;5.1;;;;;;;11.42;100;97737.58;;;;
2021/05/15 21:12:15;;;;;;;14.1;4.8;;;;;;;11.38;100;97720.47;;;;
2021/05/15 21:22:14;;;;;;;10.8;6.5;;;;;;;11.33;100;97717.97;;;;
2021/05/15 21:32:13;;;;;;;6.7;3.7;;;;;;;11.38;100;97707.78;;;;
2021/05/15 21:42:12;;;;;;;9.4;5.7;;;;;;;11.36;100;97714.61;;;;
2021/05/15 21:52:11;;;;;;;6.9;4.7;;;;;;;11.33;100;97704.48;;;;
2021/05/15 22:02:10;;;;;;;7.4;5.2;;;;;;;11.5;100;97709.7;;;;
2021/05/15 22:12:09;;;;;;;7;4.9;;;;;;;11.36;100;97695.72;;;;
2021/05/15 22:22:08;;;;;;;11.7;5.9;;;;;;;11.41;100;97679.34;;;;
2021/05/15 22:32:07;;;;;;;7.4;4.1;;;;;;;11.2;100;97670.52;;;;
2021/05/15 22:42:06;;;;;;;6.2;3.6;;;;;;;11.13;100;97656.79;;;;
2021/05/15 22:52:05;;;;;;;8.4;4.6;;;;;;;10.97;100;97662.01;;;;
2021/05/15 23:02:03;;;;;;;6.7;5.1;;;;;;;10.87;100;97668.61;;;;
2021/05/15 23:12:03;;;;;;;8.1;5;;;;;;;10.63;100;97660.42;;;;
2021/05/15 23:22:01;;;;;;;7.2;4.9;;;;;;;10.54;100;97646.24;;;;
2021/05/15 23:32:00;;;;;;;7.1;4.8;;;;;;;10.44;100;97649.34;;;;
2021/05/15 23:41:59;;;;;;;7.4;4.4;;;;;;;10.28;100;97638.36;;;;
2021/05/15 23:51:58;;;;;;;5.4;2.7;;;;;;;10.14;100;97629.74;;;;
